createdAt,value
2019-03-28T00:01:07.404Z,53.89
2019-03-28T00:06:04.384Z,54.46
2019-03-28T00:11:01.401Z,55.21
2019-03-28T00:15:58.419Z,54.24
2019-03-28T00:20:55.894Z,55.50
2019-03-28T00:25:52.963Z,54.32
2019-03-28T00:30:50.076Z,54.99
2019-03-28T00:35:47.140Z,55.70
2019-03-28T00:40:44.282Z,55.01
2019-03-28T00:45:44.409Z,54.19
2019-03-28T00:50:40.233Z,54.60
2019-03-28T00:55:37.414Z,54.99
2019-03-28T01:00:35.018Z,52.97
2019-03-28T01:05:32.054Z,52.38
2019-03-28T01:10:32.109Z,52.54
2019-03-28T01:15:29.095Z,52.85
2019-03-28T01:20:26.495Z,54.15
2019-03-28T01:25:23.491Z,54.68
2019-03-28T01:30:20.551Z,55.17
2019-03-28T01:35:17.603Z,54.06
2019-03-28T01:40:14.602Z,54.63
2019-03-28T01:45:11.745Z,54.08
2019-03-28T01:50:09.088Z,53.61
2019-03-28T01:55:06.804Z,53.08
2019-03-28T02:00:09.321Z,51.43
2019-03-28T02:05:06.989Z,54.14
2019-03-28T02:10:05.850Z,54.10
2019-03-28T02:15:06.196Z,52.97
2019-03-28T02:20:06.665Z,52.84
2019-03-28T02:25:06.752Z,51.89
2019-03-28T02:30:07.170Z,50.71
2019-03-28T02:35:04.998Z,50.03
2019-03-28T02:40:03.301Z,49.58
2019-03-28T02:45:00.664Z,49.56
2019-03-28T02:49:57.716Z,49.30
2019-03-28T02:54:54.822Z,49.31
2019-03-28T02:59:52.379Z,48.79
2019-03-28T03:04:49.495Z,49.03
2019-03-28T03:09:46.617Z,48.87
2019-03-28T03:14:45.891Z,48.38
2019-03-28T03:19:42.934Z,47.75
2019-03-28T03:24:41.846Z,47.74
2019-03-28T03:29:38.955Z,47.24
2019-03-28T03:34:35.998Z,48.06
2019-03-28T03:39:33.102Z,48.01
2019-03-28T03:44:30.181Z,48.36
2019-03-28T03:49:27.257Z,49.03
2019-03-28T03:54:24.345Z,50.44
2019-03-28T03:59:22.490Z,50.29
2019-03-28T04:04:19.610Z,50.17
2019-03-28T04:09:17.533Z,49.71
2019-03-28T04:14:14.732Z,49.48
2019-03-28T04:19:12.077Z,49.02
2019-03-28T04:24:11.008Z,48.07
2019-03-28T04:29:10.233Z,48.21
2019-03-28T04:34:08.817Z,52.10
2019-03-28T04:39:06.333Z,51.41
2019-03-28T04:44:04.540Z,49.70
2019-03-28T04:49:01.714Z,50.14
2019-03-28T04:53:59.013Z,51.30
2019-03-28T04:59:00.271Z,48.83
2019-03-28T05:03:57.541Z,48.40
2019-03-28T05:08:54.837Z,48.41
2019-03-28T05:13:53.937Z,47.67
2019-03-28T05:18:52.486Z,47.69
2019-03-28T05:23:52.587Z,47.55
2019-03-28T05:28:57.406Z,47.64
2019-03-28T05:33:48.672Z,49.66
2019-03-28T05:38:46.280Z,48.95
2019-03-28T05:43:45.498Z,48.76
2019-03-28T05:48:43.415Z,48.38
2019-03-28T05:53:40.509Z,48.22
2019-03-28T05:58:38.152Z,47.41
2019-03-28T06:03:36.091Z,48.19
2019-03-28T06:08:33.211Z,47.71
2019-03-28T06:13:33.253Z,47.61
2019-03-28T06:18:33.212Z,46.84
2019-03-28T06:23:30.340Z,46.37
2019-03-28T06:28:27.436Z,46.10
2019-03-28T06:33:24.596Z,46.25
2019-03-28T06:38:21.861Z,46.71
2019-03-28T06:43:20.994Z,46.22
2019-03-28T06:48:20.597Z,45.98
2019-03-28T06:53:17.644Z,45.98
2019-03-28T06:58:21.128Z,45.96
2019-03-28T07:03:20.061Z,45.59
2019-03-28T07:08:17.471Z,45.86
2019-03-28T07:13:16.332Z,46.48
2019-03-28T07:18:13.347Z,45.79
2019-03-28T07:23:16.515Z,45.73
2019-03-28T07:28:13.753Z,45.04
2019-03-28T07:33:10.897Z,45.87
2019-03-28T07:38:08.673Z,44.71
2019-03-28T07:43:08.372Z,44.60
2019-03-28T07:48:05.742Z,44.20
2019-03-28T07:53:04.813Z,44.86
2019-03-28T07:58:01.958Z,47.64
2019-03-28T08:03:03.597Z,49.40
2019-03-28T08:07:58.153Z,49.97
2019-03-28T08:12:55.269Z,50.45
2019-03-28T08:17:52.311Z,50.88
2019-03-28T08:22:49.872Z,52.30
2019-03-28T08:27:48.263Z,52.56
2019-03-28T08:32:47.951Z,53.43
2019-03-28T08:37:45.301Z,53.09
2019-03-28T08:42:42.461Z,52.83
2019-03-28T08:47:39.527Z,53.72
2019-03-28T08:52:38.773Z,54.57
2019-03-28T08:57:37.733Z,55.79
2019-03-28T09:02:38.072Z,55.63
2019-03-28T09:07:41.622Z,56.83
2019-03-28T09:12:38.936Z,57.05
2019-03-28T09:17:36.130Z,57.13
2019-03-28T09:22:38.916Z,56.64
2019-03-28T09:27:41.318Z,58.39
2019-03-28T09:32:38.638Z,57.72
2019-03-28T09:37:35.722Z,57.42
2019-03-28T09:42:32.899Z,58.82
2019-03-28T09:47:31.205Z,58.20
2019-03-28T09:52:30.336Z,58.76
2019-03-28T09:57:27.640Z,59.25
2019-03-28T10:02:26.650Z,59.26
2019-03-28T10:07:25.727Z,60.07
2019-03-28T10:12:24.758Z,60.14
2019-03-28T10:17:59.202Z,59.07
2019-03-28T10:23:28.131Z,59.61
2019-03-28T10:28:34.612Z,59.69
2019-03-28T10:33:33.180Z,59.95
2019-03-28T10:38:30.356Z,60.47
2019-03-28T10:43:30.147Z,59.76
2019-03-28T10:48:27.517Z,60.09
2019-03-28T10:53:29.839Z,60.20
2019-03-28T10:58:26.719Z,59.79
2019-03-28T11:03:24.819Z,60.21
2019-03-28T11:08:22.031Z,60.20
2019-03-28T11:13:19.244Z,60.60
2019-03-28T11:18:17.235Z,60.25
2019-03-28T11:23:25.542Z,61.03
2019-03-28T11:28:23.520Z,60.56
2019-03-28T11:33:26.141Z,61.16
2019-03-28T11:38:29.675Z,61.39
2019-03-28T11:49:24.491Z,61.77
2019-03-28T11:54:41.514Z,61.33
2019-03-28T11:59:40.528Z,61.34
2019-03-28T12:04:38.857Z,61.13
2019-03-28T12:09:36.041Z,61.70
2019-03-28T12:14:38.657Z,61.25
2019-03-28T12:19:42.851Z,61.07
2019-03-28T12:24:40.015Z,61.11
2019-03-28T12:29:36.990Z,61.13
2019-03-28T12:34:37.357Z,61.14
2019-03-28T12:39:35.227Z,61.49
2019-03-28T12:44:32.489Z,62.00
2019-03-28T12:49:29.607Z,61.33
2019-03-28T12:54:26.797Z,61.55
2019-03-28T12:59:23.898Z,61.43
2019-03-28T13:04:21.321Z,61.53
2019-03-28T13:09:18.314Z,61.27
2019-03-28T13:14:15.393Z,60.41
2019-03-28T13:19:17.431Z,60.37
2019-03-28T13:24:14.550Z,59.98
2019-03-28T13:29:14.252Z,59.19
2019-03-28T13:34:14.437Z,57.36
2019-03-28T13:39:11.547Z,55.96
2019-03-28T13:44:12.254Z,56.67
2019-03-28T13:49:08.867Z,55.94
2019-03-28T13:54:06.148Z,55.21
2019-03-28T13:59:03.885Z,55.87
2019-03-28T14:04:02.793Z,55.35
2019-03-28T14:09:01.814Z,54.89
2019-03-28T14:14:03.869Z,54.66
2019-03-28T14:19:05.188Z,54.93
2019-03-28T14:24:17.039Z,53.69
2019-03-28T14:29:14.175Z,54.05
2019-03-28T14:34:13.105Z,53.25
2019-03-28T14:39:10.213Z,53.16
2019-03-28T14:44:07.351Z,52.96
2019-03-28T14:49:05.540Z,53.62
2019-03-28T14:54:02.621Z,53.24
2019-03-28T14:59:00.471Z,53.39
2019-03-28T15:04:00.285Z,54.14
2019-03-28T15:08:57.755Z,53.78
2019-03-28T15:13:54.767Z,53.93
2019-03-28T15:18:53.000Z,54.27
2019-03-28T15:23:50.020Z,54.62
2019-03-28T15:28:47.084Z,52.84
2019-03-28T15:33:44.133Z,52.44
2019-03-28T15:38:41.279Z,52.56
2019-03-28T15:43:38.349Z,52.87
2019-03-28T15:48:35.685Z,52.54
2019-03-28T15:53:33.256Z,52.87
2019-03-28T15:58:32.573Z,53.02
2019-03-28T16:03:29.684Z,51.57
2019-03-28T16:08:27.784Z,51.74
2019-03-28T16:13:25.129Z,51.46
2019-03-28T16:18:22.198Z,51.58
2019-03-28T16:23:19.307Z,52.54
2019-03-28T16:28:16.442Z,53.34
2019-03-28T16:33:13.469Z,54.00
2019-03-28T16:38:10.743Z,54.14
2019-03-28T16:43:07.813Z,54.51
2019-03-28T16:48:04.904Z,54.73
2019-03-28T16:53:01.985Z,54.59
2019-03-28T16:57:59.147Z,54.88
2019-03-28T17:02:56.177Z,55.32
2019-03-28T17:07:53.481Z,55.59
2019-03-28T17:12:50.486Z,55.29
2019-03-28T17:17:47.602Z,55.39
2019-03-28T17:22:44.572Z,55.51
2019-03-28T17:27:41.719Z,56.17
2019-03-28T17:32:38.881Z,56.90
2019-03-28T17:37:36.417Z,57.97
2019-03-28T17:42:33.790Z,58.05
2019-03-28T17:47:30.868Z,58.75
2019-03-28T17:52:28.027Z,58.52
2019-03-28T17:57:25.090Z,57.99
2019-03-28T18:02:22.152Z,58.70
2019-03-28T18:07:19.326Z,57.91
2019-03-28T18:12:16.363Z,58.65
2019-03-28T18:17:13.450Z,57.91
2019-03-28T18:22:10.400Z,58.83
2019-03-28T18:27:07.483Z,57.48
2019-03-28T18:32:04.488Z,57.17
2019-03-28T18:37:08.708Z,58.05
2019-03-28T18:42:05.699Z,58.21
2019-03-28T18:47:02.844Z,58.76
2019-03-28T18:51:59.930Z,58.11
2019-03-28T18:56:57.038Z,58.42
2019-03-28T19:01:54.135Z,58.53
2019-03-28T19:06:52.610Z,57.70
2019-03-28T19:11:49.657Z,57.76
2019-03-28T19:16:48.311Z,59.51
2019-03-28T19:21:45.584Z,58.88
2019-03-28T19:26:42.877Z,59.02
2019-03-28T19:31:40.129Z,58.50
2019-03-28T19:36:37.560Z,58.34
2019-03-28T19:41:34.627Z,58.64
2019-03-28T19:46:32.207Z,58.82
2019-03-28T19:51:29.787Z,59.55
2019-03-28T19:56:26.969Z,60.31
2019-03-28T20:01:24.105Z,61.00
2019-03-28T20:06:22.688Z,60.29
2019-03-28T20:11:20.785Z,60.69
2019-03-28T20:16:17.930Z,61.11
2019-03-28T20:21:15.057Z,61.38
2019-03-28T20:26:12.475Z,61.79
2019-03-28T20:31:09.633Z,61.16
2019-03-28T20:36:35.511Z,60.22
2019-03-28T20:41:05.585Z,60.03
2019-03-28T20:46:02.980Z,61.48
2019-03-28T20:51:03.294Z,61.40
2019-03-28T20:55:59.155Z,61.27
2019-03-28T21:00:56.137Z,61.74
2019-03-28T21:05:53.251Z,61.80
2019-03-28T21:10:50.317Z,62.40
2019-03-28T21:15:48.668Z,61.83
2019-03-28T21:20:45.645Z,62.31
2019-03-28T21:25:42.682Z,62.86
2019-03-28T21:30:47.138Z,62.65
2019-03-28T21:35:39.206Z,62.64
2019-03-28T21:40:36.613Z,62.71
2019-03-28T21:45:34.169Z,62.80
2019-03-28T21:50:31.248Z,62.43
2019-03-28T21:55:28.378Z,61.54
2019-03-28T22:00:25.537Z,62.99
2019-03-28T22:05:22.662Z,62.82
2019-03-28T22:10:19.698Z,62.97
2019-03-28T22:15:16.737Z,64.01
2019-03-28T22:20:15.137Z,63.59
2019-03-28T22:25:12.123Z,63.54
2019-03-28T22:30:09.619Z,63.69
2019-03-28T22:35:06.893Z,63.33
2019-03-28T22:40:06.574Z,63.14
2019-03-28T22:45:07.074Z,62.80
2019-03-28T22:50:07.154Z,63.09
2019-03-28T22:55:08.057Z,62.48
2019-03-28T23:00:09.149Z,62.30
2019-03-28T23:05:07.355Z,63.10
2019-03-28T23:10:07.222Z,63.33
2019-03-28T23:15:06.735Z,63.09
2019-03-28T23:20:07.866Z,62.94
2019-03-28T23:25:05.595Z,62.61
2019-03-28T23:30:05.861Z,62.96
2019-03-28T23:35:03.567Z,63.06
2019-03-28T23:40:00.635Z,62.48
2019-03-28T23:44:58.251Z,62.64
2019-03-28T23:49:55.321Z,62.95
2019-03-28T23:54:52.808Z,62.44
2019-03-28T23:59:49.937Z,62.01
